createdAt,value
2022-11-22T00:00:41.825Z,8.25
2022-11-22T00:03:09.623Z,9.20
2022-11-22T00:05:37.416Z,8.52
2022-11-22T00:08:05.563Z,8.00
2022-11-22T00:10:33.423Z,7.50
2022-11-22T00:13:02.534Z,7.60
2022-11-22T00:15:30.790Z,8.38
2022-11-22T00:17:58.592Z,7.85
2022-11-22T00:20:26.525Z,7.80
2022-11-22T00:22:54.345Z,7.13
2022-11-22T00:25:22.018Z,7.35
2022-11-22T00:27:49.682Z,7.38
2022-11-22T00:30:19.065Z,8.23
2022-11-22T00:32:46.872Z,7.53
2022-11-22T00:35:14.649Z,7.57
2022-11-22T00:37:42.438Z,6.97
2022-11-22T00:40:11.346Z,7.20
2022-11-22T00:42:39.128Z,7.95
2022-11-22T00:45:07.970Z,8.00
2022-11-22T00:47:37.074Z,7.72
2022-11-22T00:50:05.334Z,8.05
2022-11-22T00:52:33.254Z,8.38
2022-11-22T00:55:01.073Z,7.93
2022-11-22T00:57:28.910Z,8.75
2022-11-22T00:59:57.735Z,9.05
2022-11-22T01:02:25.449Z,8.27
2022-11-22T01:04:54.500Z,8.27
2022-11-22T01:07:22.239Z,8.52
2022-11-22T01:09:49.920Z,8.85
2022-11-22T01:12:17.592Z,9.05
2022-11-22T01:14:45.323Z,8.60
2022-11-22T01:17:12.997Z,8.70
2022-11-22T01:19:40.900Z,9.32
2022-11-22T01:22:09.976Z,10.13
2022-11-22T01:24:37.704Z,9.38
2022-11-22T01:27:05.594Z,9.38
2022-11-22T01:29:33.264Z,8.85
2022-11-22T01:32:00.892Z,9.13
2022-11-22T01:34:28.630Z,9.23
2022-11-22T01:36:56.355Z,9.75
2022-11-22T01:39:25.489Z,8.98
2022-11-22T01:41:53.230Z,9.32
2022-11-22T01:44:22.683Z,9.32
2022-11-22T01:46:52.634Z,9.48
2022-11-22T01:49:25.625Z,9.90
2022-11-22T01:51:55.268Z,9.85
2022-11-22T01:54:26.911Z,9.70
2022-11-22T01:56:56.486Z,9.60
2022-11-22T01:59:26.523Z,9.82
2022-11-22T02:01:54.696Z,10.20
2022-11-22T02:04:23.610Z,9.40
2022-11-22T02:06:55.020Z,10.45
2022-11-22T02:09:23.193Z,7.28
2022-11-22T02:11:55.273Z,10.55
2022-11-22T02:16:55.464Z,9.93
2022-11-22T02:19:30.307Z,9.07
2022-11-22T02:22:02.861Z,9.25
2022-11-22T02:24:34.442Z,9.68
2022-11-22T02:27:03.858Z,10.35
2022-11-22T02:29:32.513Z,8.45
2022-11-22T02:32:00.424Z,8.00
2022-11-22T02:34:28.168Z,9.25
2022-11-22T02:36:56.177Z,9.18
2022-11-22T02:39:28.011Z,10.27
2022-11-22T02:41:56.744Z,9.57
2022-11-22T02:44:26.841Z,9.57
2022-11-22T02:46:55.974Z,9.35
2022-11-22T02:49:25.822Z,10.18
2022-11-22T02:51:54.317Z,10.70
2022-11-22T02:54:22.076Z,7.90
2022-11-22T02:56:50.027Z,8.88
2022-11-22T02:59:17.741Z,8.48
2022-11-22T03:01:48.318Z,8.38
2022-11-22T03:04:25.012Z,8.65
2022-11-22T03:06:54.218Z,9.07
2022-11-22T03:09:22.045Z,9.07
2022-11-22T03:11:49.895Z,9.23
2022-11-22T03:14:17.921Z,8.52
2022-11-22T03:16:48.568Z,10.02
2022-11-22T03:19:16.628Z,8.45
2022-11-22T03:21:45.514Z,8.75
2022-11-22T03:24:13.335Z,9.32
2022-11-22T03:26:41.207Z,8.13
2022-11-22T03:29:09.093Z,9.30
2022-11-22T03:31:37.196Z,8.40
2022-11-22T03:34:06.494Z,8.13
2022-11-22T03:36:34.189Z,8.10
2022-11-22T03:39:01.993Z,7.70
2022-11-22T03:41:29.834Z,8.43
2022-11-22T03:43:57.687Z,8.65
2022-11-22T03:46:25.464Z,7.93
2022-11-22T03:48:53.239Z,8.93
2022-11-22T03:51:22.587Z,8.98
2022-11-22T03:53:50.445Z,8.82
2022-11-22T03:56:18.249Z,9.63
2022-11-22T03:58:46.144Z,8.20
2022-11-22T04:01:16.750Z,8.38
2022-11-22T04:03:44.941Z,7.45
2022-11-22T04:06:12.851Z,8.30
2022-11-22T04:08:42.277Z,7.22
2022-11-22T04:11:10.223Z,8.63
2022-11-22T04:13:55.271Z,7.63
2022-11-22T04:16:23.026Z,7.68
2022-11-22T04:18:50.782Z,7.10
2022-11-22T04:21:35.542Z,6.80
2022-11-22T04:24:23.507Z,7.70
2022-11-22T04:26:51.394Z,7.15
2022-11-22T04:29:20.135Z,8.05
2022-11-22T04:32:20.599Z,7.82
2022-11-22T04:34:48.461Z,7.28
2022-11-22T04:37:16.130Z,7.38
2022-11-22T04:39:45.347Z,7.32
2022-11-22T04:42:30.657Z,7.47
2022-11-22T04:44:58.424Z,7.35
2022-11-22T04:47:47.564Z,7.00
2022-11-22T04:50:35.572Z,7.55
2022-11-22T04:53:03.544Z,7.43
2022-11-22T04:55:32.829Z,7.25
2022-11-22T04:58:00.805Z,7.57
2022-11-22T05:00:29.174Z,7.78
2022-11-22T05:02:57.026Z,7.82
2022-11-22T05:05:24.991Z,7.10
2022-11-22T05:07:52.727Z,7.88
2022-11-22T05:10:26.011Z,7.85
2022-11-22T05:12:56.053Z,7.45
2022-11-22T05:15:23.731Z,7.07
2022-11-22T05:17:51.371Z,7.28
2022-11-22T05:20:19.042Z,7.07
2022-11-22T05:23:04.263Z,6.95
2022-11-22T05:25:32.019Z,6.75
2022-11-22T05:28:01.392Z,6.97
2022-11-22T16:00:31.209Z,9.18
2022-11-22T17:22:03.090Z,40.05
2022-11-22T17:23:00.835Z,28.75
2022-11-22T17:25:28.560Z,33.72
2022-11-22T17:27:56.572Z,54.75
2022-11-22T17:30:24.585Z,45.28
2022-11-22T17:32:52.438Z,18.17
2022-11-22T17:35:20.605Z,11.68
2022-11-22T17:37:54.424Z,15.32
2022-11-22T17:40:22.334Z,13.98
2022-11-22T17:42:50.116Z,10.50
2022-11-22T17:45:17.862Z,9.20
2022-11-22T17:47:45.766Z,8.93
2022-11-22T17:50:13.487Z,9.48
2022-11-22T17:52:41.365Z,9.10
2022-11-22T17:55:14.408Z,10.63
2022-11-22T17:57:42.728Z,10.80
2022-11-22T18:14:40.835Z,9.40
2022-11-22T18:20:48.754Z,9.77
2022-11-22T18:23:17.014Z,10.55
2022-11-22T18:25:48.289Z,10.43
2022-11-22T18:28:38.738Z,6.43
2022-11-22T18:31:09.549Z,7.97
2022-11-22T18:33:37.441Z,10.73
2022-11-22T18:36:49.516Z,10.18
2022-11-22T18:38:57.059Z,9.70
2022-11-22T18:41:24.804Z,8.20
2022-11-22T18:43:52.538Z,11.25
2022-11-22T18:46:21.676Z,9.23
2022-11-22T18:48:50.150Z,8.63
2022-11-22T18:51:18.160Z,11.10
2022-11-22T18:53:45.936Z,11.77
2022-11-22T18:56:16.910Z,9.48
2022-11-22T18:58:44.973Z,14.27
2022-11-22T19:01:13.325Z,12.02
2022-11-22T19:03:42.518Z,10.90
2022-11-22T19:06:13.037Z,8.95
2022-11-22T19:08:41.348Z,8.07
2022-11-22T19:11:09.500Z,8.35
2022-11-22T19:13:38.672Z,8.52
2022-11-22T19:16:07.214Z,8.82
2022-11-22T19:18:41.300Z,8.15
2022-11-22T19:21:13.679Z,9.88
2022-11-22T19:23:41.996Z,8.93
2022-11-22T19:26:11.390Z,9.65
2022-11-22T19:28:39.201Z,8.73
2022-11-22T19:31:08.622Z,8.50
2022-11-22T19:33:36.456Z,10.18
2022-11-22T19:36:06.593Z,10.05
2022-11-22T19:38:35.785Z,11.75
2022-11-22T19:41:08.476Z,12.15
2022-11-22T19:43:36.370Z,11.52
2022-11-22T19:46:04.416Z,9.95
2022-11-22T19:48:32.735Z,9.07
2022-11-22T19:51:00.662Z,9.55
2022-11-22T19:53:28.394Z,10.73
2022-11-22T19:56:03.167Z,9.50
2022-11-22T19:58:31.236Z,10.60
2022-11-22T20:01:05.473Z,10.00
2022-11-22T20:03:34.367Z,8.60
2022-11-22T20:06:02.940Z,9.00
2022-11-22T20:08:31.128Z,9.90
2022-11-22T20:11:04.335Z,9.48
2022-11-22T20:13:34.538Z,9.82
2022-11-22T20:16:06.844Z,14.77
2022-11-22T20:18:34.518Z,28.80
2022-11-22T20:21:02.789Z,43.13
2022-11-22T20:23:30.719Z,23.42
2022-11-22T20:26:03.695Z,31.55
2022-11-22T20:28:31.471Z,18.88
2022-11-22T20:31:06.690Z,25.73
2022-11-22T20:33:35.175Z,36.53
2022-11-22T20:36:04.276Z,36.08
2022-11-22T20:38:33.768Z,14.98
2022-11-22T20:41:03.252Z,12.75
2022-11-22T20:43:31.647Z,14.68
2022-11-22T20:46:03.073Z,9.65
2022-11-22T20:48:31.613Z,7.80
2022-11-22T20:50:59.390Z,7.93
2022-11-22T20:53:27.264Z,8.82
2022-11-22T20:55:55.200Z,7.28
2022-11-22T20:58:25.970Z,8.98
2022-11-22T21:00:53.804Z,8.63
2022-11-22T21:03:21.601Z,8.73
2022-11-22T21:05:52.164Z,10.27
2022-11-22T21:08:20.206Z,13.20
2022-11-22T21:10:47.859Z,8.75
2022-11-22T21:13:15.597Z,9.68
2022-11-22T21:15:44.769Z,10.98
2022-11-22T21:18:28.115Z,8.65
2022-11-22T21:20:55.829Z,11.23
2022-11-22T21:23:23.531Z,12.77
2022-11-22T21:25:51.722Z,9.05
2022-11-22T21:28:19.528Z,10.50
2022-11-22T21:30:53.566Z,8.98
2022-11-22T21:33:21.259Z,8.68
2022-11-22T21:35:49.172Z,8.30
2022-11-22T21:38:16.828Z,9.60
2022-11-22T21:40:51.359Z,8.50
2022-11-22T21:43:19.004Z,9.48
2022-11-22T21:45:48.114Z,11.55
2022-11-22T21:48:16.168Z,9.68
2022-11-22T21:50:43.863Z,8.82
2022-11-22T21:53:11.682Z,8.85
2022-11-22T21:55:39.571Z,8.38
2022-11-22T21:58:07.825Z,7.25
2022-11-22T22:00:35.522Z,7.68
2022-11-22T22:03:04.716Z,7.88
2022-11-22T22:05:32.651Z,7.63
2022-11-22T22:08:00.427Z,7.57
2022-11-22T22:10:28.250Z,8.38
2022-11-22T22:12:55.916Z,7.07
2022-11-22T22:15:23.651Z,8.65
2022-11-22T22:17:53.494Z,7.10
2022-11-22T22:20:22.609Z,11.50
2022-11-22T22:22:50.512Z,12.40
2022-11-22T22:25:18.956Z,7.85
2022-11-22T22:27:46.632Z,7.65
2022-11-22T22:30:15.901Z,8.25
2022-11-22T22:32:43.632Z,9.68
2022-11-22T22:35:11.656Z,8.05
2022-11-22T22:37:40.722Z,9.27
2022-11-22T22:40:09.087Z,29.50
2022-11-22T22:42:36.786Z,22.27
2022-11-22T22:45:04.789Z,10.60
2022-11-22T22:47:32.630Z,7.93
2022-11-22T22:50:00.382Z,7.55
2022-11-22T22:52:28.048Z,7.25
2022-11-22T22:54:57.112Z,7.95
2022-11-22T22:57:24.797Z,7.88
2022-11-22T22:59:53.047Z,18.52
2022-11-22T23:02:20.737Z,8.18
2022-11-22T23:04:48.438Z,7.43
2022-11-22T23:07:16.312Z,9.82
2022-11-22T23:09:44.038Z,10.35
2022-11-22T23:12:13.146Z,8.75
2022-11-22T23:14:41.504Z,7.70
2022-11-22T23:17:10.244Z,7.75
2022-11-22T23:19:38.199Z,7.63
2022-11-22T23:22:06.260Z,7.97
2022-11-22T23:24:34.346Z,7.38
2022-11-22T23:27:02.155Z,8.10
2022-11-22T23:29:31.392Z,7.55
2022-11-22T23:31:59.214Z,8.38
2022-11-22T23:34:27.018Z,7.72
2022-11-22T23:36:54.868Z,7.93
2022-11-22T23:39:22.663Z,7.18
2022-11-22T23:41:50.311Z,7.55
2022-11-22T23:44:17.910Z,7.53
2022-11-22T23:46:46.978Z,7.10
2022-11-22T23:49:14.731Z,7.43
2022-11-22T23:51:42.347Z,7.55
2022-11-22T23:54:11.436Z,7.70
2022-11-22T23:56:39.093Z,8.35
2022-11-22T23:59:06.748Z,8.77
